createdAt,value
2023-02-28T00:01:55.503Z,5.64
2023-02-28T00:04:22.366Z,5.68
2023-02-28T00:06:49.096Z,5.69
2023-02-28T00:09:19.423Z,5.72
2023-02-28T00:11:49.183Z,5.57
2023-02-28T00:14:17.476Z,5.48
2023-02-28T00:16:44.534Z,5.33
2023-02-28T00:19:16.759Z,5.46
2023-02-28T00:21:56.907Z,5.56
2023-02-28T00:24:33.108Z,5.35
2023-02-28T00:27:07.678Z,5.51
2023-02-28T00:29:34.393Z,5.50
2023-02-28T00:32:06.411Z,5.51
2023-02-28T00:34:38.708Z,5.43
2023-02-28T00:37:29.137Z,5.09
2023-02-28T00:39:58.354Z,5.38
2023-02-28T00:42:25.989Z,5.03
2023-02-28T00:44:52.910Z,5.43
2023-02-28T00:47:40.809Z,5.05
2023-02-28T00:50:10.901Z,5.42
2023-02-28T00:52:37.700Z,5.22
2023-02-28T00:55:04.912Z,5.39
2023-02-28T00:57:31.759Z,5.23
2023-02-28T00:59:58.668Z,5.25
2023-02-28T01:02:28.865Z,5.18
2023-02-28T01:04:59.177Z,4.90
2023-02-28T01:07:41.449Z,5.19
2023-02-28T01:10:09.038Z,4.84
2023-02-28T01:15:16.377Z,4.93
2023-02-28T01:18:00.134Z,4.99
2023-02-28T01:20:26.933Z,5.14
2023-02-28T01:22:53.579Z,5.19
2023-02-28T01:28:09.109Z,5.12
2023-02-28T01:30:35.738Z,4.80
2023-02-28T01:33:11.097Z,5.02
2023-02-28T01:35:40.175Z,4.80
2023-02-28T01:38:25.093Z,5.04
2023-02-28T01:40:52.165Z,5.07
2023-02-28T01:43:28.859Z,5.11
2023-02-28T01:45:59.985Z,4.94
2023-02-28T01:48:40.043Z,5.04
2023-02-28T01:51:24.132Z,4.66
2023-02-28T01:53:56.846Z,5.01
2023-02-28T01:56:31.785Z,4.48
2023-02-28T01:59:01.487Z,5.02
2023-02-28T02:04:13.710Z,5.14
2023-02-28T02:06:47.039Z,5.07
2023-02-28T02:09:13.822Z,5.11
2023-02-28T02:11:43.518Z,5.02
2023-02-28T02:14:25.368Z,4.58
2023-02-28T02:17:14.094Z,4.84
2023-02-28T02:20:33.367Z,4.81
2023-02-28T02:23:23.836Z,4.84
2023-02-28T02:25:57.951Z,4.92
2023-02-28T02:28:53.925Z,4.63
2023-02-28T02:31:47.774Z,4.93
2023-02-28T02:34:54.778Z,4.96
2023-02-28T02:37:58.210Z,4.90
2023-02-28T02:40:33.282Z,4.99
2023-02-28T02:43:14.671Z,4.91
2023-02-28T02:45:54.204Z,4.78
2023-02-28T02:48:34.763Z,4.56
2023-02-28T02:51:15.823Z,4.93
2023-02-28T02:54:03.590Z,4.84
2023-02-28T02:56:34.609Z,4.93
2023-02-28T02:59:09.162Z,4.87
2023-02-28T03:01:40.894Z,4.91
2023-02-28T03:04:20.640Z,5.10
2023-02-28T03:06:47.625Z,4.83
2023-02-28T03:09:16.655Z,5.09
2023-02-28T03:11:46.430Z,4.87
2023-02-28T03:14:40.439Z,5.10
2023-02-28T03:17:38.863Z,5.11
2023-02-28T03:20:14.184Z,4.67
2023-02-28T03:23:23.866Z,5.08
2023-02-28T03:26:17.916Z,4.85
2023-02-28T03:29:22.995Z,4.77
2023-02-28T03:32:04.417Z,4.96
2023-02-28T03:34:37.673Z,5.00
2023-02-28T03:37:22.447Z,4.93
2023-02-28T03:40:09.869Z,4.93
2023-02-28T03:42:40.802Z,4.42
2023-02-28T03:45:25.827Z,4.75
2023-02-28T03:47:56.148Z,4.49
2023-02-28T03:50:39.516Z,4.92
2023-02-28T03:53:40.577Z,4.90
2023-02-28T03:56:21.222Z,4.85
2023-02-28T03:59:17.621Z,4.20
2023-02-28T04:01:47.694Z,4.93
2023-02-28T04:04:16.180Z,4.93
2023-02-28T04:06:49.227Z,4.90
2023-02-28T04:09:22.073Z,4.83
2023-02-28T04:11:53.672Z,4.84
2023-02-28T04:14:23.932Z,4.94
2023-02-28T04:16:54.742Z,4.85
2023-02-28T04:19:21.438Z,4.85
2023-02-28T04:21:50.321Z,4.86
2023-02-28T04:24:19.944Z,4.80
2023-02-28T04:26:52.611Z,4.76
2023-02-28T04:29:26.424Z,4.68
2023-02-28T04:31:57.248Z,4.79
2023-02-28T04:34:24.689Z,4.79
2023-02-28T04:37:11.478Z,4.59
2023-02-28T04:39:45.742Z,4.67
2023-02-28T04:42:13.305Z,4.82
2023-02-28T04:44:51.918Z,4.85
2023-02-28T04:47:22.170Z,4.61
2023-02-28T04:49:49.189Z,4.69
2023-02-28T04:52:15.821Z,4.59
2023-02-28T04:54:44.043Z,4.69
2023-02-28T04:57:10.710Z,4.70
2023-02-28T04:59:42.919Z,4.67
2023-02-28T05:02:11.686Z,4.63
2023-02-28T05:04:41.188Z,4.55
2023-02-28T05:07:11.103Z,4.49
2023-02-28T05:09:43.220Z,4.59
2023-02-28T05:12:16.262Z,4.55
2023-02-28T05:14:42.918Z,4.65
2023-02-28T05:17:13.201Z,4.69
2023-02-28T05:19:39.758Z,4.57
2023-02-28T05:22:20.416Z,4.57
2023-02-28T05:24:47.347Z,4.67
2023-02-28T05:27:22.617Z,4.65
2023-02-28T05:29:49.295Z,4.66
2023-02-28T05:32:19.186Z,4.70
2023-02-28T05:34:48.875Z,4.53
2023-02-28T05:37:24.163Z,4.72
2023-02-28T05:39:51.153Z,4.62
2023-02-28T05:42:37.267Z,4.60
2023-02-28T05:45:05.186Z,4.63
2023-02-28T05:47:34.568Z,4.62
2023-02-28T05:50:04.944Z,4.49
2023-02-28T05:52:34.819Z,4.61
2023-02-28T05:55:05.776Z,4.60
2023-02-28T05:57:35.262Z,4.37
2023-02-28T06:00:11.328Z,4.58
2023-02-28T06:02:44.168Z,4.54
2023-02-28T06:05:23.425Z,4.55
2023-02-28T06:07:50.137Z,4.66
2023-02-28T06:10:16.920Z,4.61
2023-02-28T06:12:43.838Z,4.62
2023-02-28T06:15:19.166Z,4.64
2023-02-28T06:17:45.935Z,4.25
2023-02-28T06:20:13.934Z,4.48
2023-02-28T06:22:40.773Z,4.63
2023-02-28T06:25:15.155Z,4.68
2023-02-28T06:27:48.408Z,4.59
2023-02-28T06:30:15.199Z,4.44
2023-02-28T06:32:52.722Z,4.58
2023-02-28T06:35:19.675Z,4.74
2023-02-28T06:37:46.456Z,4.59
2023-02-28T06:40:18.439Z,4.88
2023-02-28T06:42:45.102Z,4.90
2023-02-28T06:45:12.297Z,4.79
2023-02-28T06:47:40.447Z,4.97
2023-02-28T06:50:22.093Z,4.89
2023-02-28T06:52:49.312Z,4.73
2023-02-28T06:55:18.115Z,4.71
2023-02-28T06:58:06.368Z,4.56
2023-02-28T07:00:33.197Z,4.62
2023-02-28T07:03:26.634Z,4.50
2023-02-28T07:06:07.444Z,4.64
2023-02-28T07:08:39.516Z,4.61
2023-02-28T07:11:11.187Z,4.60
2023-02-28T07:13:40.688Z,4.61
2023-02-28T07:16:26.877Z,4.70
2023-02-28T07:18:54.696Z,4.56
2023-02-28T07:21:28.815Z,4.48
2023-02-28T07:24:22.983Z,4.46
2023-02-28T07:26:53.012Z,4.37
2023-02-28T07:29:19.619Z,4.31
2023-02-28T07:31:47.621Z,4.31
2023-02-28T07:34:20.712Z,4.36
2023-02-28T07:36:49.980Z,4.31
2023-02-28T07:39:20.073Z,4.38
2023-02-28T07:41:53.978Z,4.10
2023-02-28T07:44:24.219Z,4.49
2023-02-28T07:46:56.717Z,4.45
2023-02-28T07:49:30.430Z,4.55
2023-02-28T07:52:12.765Z,4.41
2023-02-28T07:54:43.219Z,4.61
2023-02-28T07:57:09.966Z,4.69
2023-02-28T07:59:44.212Z,4.64
2023-02-28T08:02:16.477Z,4.72
2023-02-28T08:05:01.434Z,4.77
2023-02-28T08:07:40.322Z,4.83
2023-02-28T08:10:13.844Z,4.90
2023-02-28T08:12:44.271Z,4.83
2023-02-28T08:15:11.213Z,4.83
2023-02-28T08:17:38.198Z,4.92
2023-02-28T08:20:05.555Z,4.91
2023-02-28T08:22:33.213Z,4.80
2023-02-28T08:24:59.971Z,4.96
2023-02-28T08:27:30.114Z,4.96
2023-02-28T08:29:57.702Z,4.87
2023-02-28T08:32:29.829Z,4.99
2023-02-28T08:34:59.635Z,4.81
2023-02-28T08:37:30.808Z,4.99
2023-02-28T08:39:58.064Z,4.90
2023-02-28T08:42:27.621Z,5.03
2023-02-28T08:45:01.715Z,5.04
2023-02-28T08:47:31.732Z,4.93
2023-02-28T08:50:00.861Z,5.00
2023-02-28T08:52:28.492Z,4.73
2023-02-28T08:54:55.495Z,4.88
2023-02-28T08:57:22.325Z,5.04
2023-02-28T08:59:51.150Z,5.10
2023-02-28T09:02:17.905Z,5.10
2023-02-28T09:04:49.230Z,5.08
2023-02-28T09:07:15.991Z,5.17
2023-02-28T09:10:09.541Z,5.22
2023-02-28T09:12:37.294Z,5.20
2023-02-28T09:15:16.244Z,5.39
2023-02-28T09:20:29.563Z,5.50
2023-02-28T09:23:02.951Z,5.59
2023-02-28T09:25:57.232Z,4.96
2023-02-28T09:28:47.007Z,5.40
2023-02-28T09:34:14.460Z,5.64
2023-02-28T09:36:58.494Z,5.48
2023-02-28T09:39:32.444Z,5.44
2023-02-28T09:42:01.243Z,5.64
2023-02-28T09:44:56.236Z,5.70
2023-02-28T09:47:48.714Z,5.71
2023-02-28T09:50:31.561Z,5.59
2023-02-28T09:53:05.566Z,5.66
2023-02-28T09:55:46.450Z,5.77
2023-02-28T09:58:55.199Z,5.80
2023-02-28T10:01:47.035Z,5.51
2023-02-28T10:04:39.321Z,5.90
2023-02-28T10:07:39.789Z,5.92
2023-02-28T10:10:36.396Z,5.76
2023-02-28T10:13:27.885Z,6.06
2023-02-28T10:16:10.058Z,6.15
2023-02-28T10:18:54.718Z,5.94
2023-02-28T10:21:37.892Z,5.99
2023-02-28T10:24:19.268Z,6.27
2023-02-28T10:26:49.703Z,6.33
2023-02-28T10:29:20.310Z,6.17
2023-02-28T10:31:47.571Z,6.22
2023-02-28T10:34:18.605Z,6.12
2023-02-28T10:36:51.279Z,6.05
2023-02-28T10:39:45.220Z,6.02
2023-02-28T10:42:31.602Z,6.34
2023-02-28T10:45:26.713Z,6.25
2023-02-28T10:47:57.776Z,6.04
2023-02-28T10:50:35.736Z,6.35
2023-02-28T10:53:52.708Z,6.46
2023-02-28T10:56:27.171Z,6.61
2023-02-28T10:59:22.524Z,6.51
2023-02-28T11:01:54.379Z,6.53
2023-02-28T11:04:42.418Z,6.50
2023-02-28T11:07:52.751Z,6.36
2023-02-28T11:10:34.741Z,6.58
2023-02-28T11:13:03.905Z,6.66
2023-02-28T11:15:35.293Z,6.52
2023-02-28T11:18:09.664Z,6.68
2023-02-28T11:20:47.373Z,6.75
2023-02-28T11:23:31.610Z,6.83
2023-02-28T11:26:19.558Z,6.80
2023-02-28T11:29:48.011Z,6.98
2023-02-28T11:32:47.702Z,7.06
2023-02-28T11:35:36.096Z,6.74
2023-02-28T11:38:19.017Z,6.62
2023-02-28T11:41:24.253Z,6.98
2023-02-28T11:47:04.215Z,6.85
2023-02-28T11:50:07.638Z,6.73
2023-02-28T11:52:40.756Z,6.89
2023-02-28T11:55:10.509Z,7.05
2023-02-28T11:58:08.688Z,6.82
2023-02-28T12:00:38.440Z,6.35
2023-02-28T12:03:08.219Z,6.98
2023-02-28T12:05:55.999Z,6.96
2023-02-28T12:08:35.596Z,6.84
2023-02-28T12:11:35.134Z,6.79
2023-02-28T12:14:35.454Z,6.76
2023-02-28T12:17:17.114Z,6.68
2023-02-28T12:20:14.800Z,6.78
2023-02-28T12:22:56.217Z,6.79
2023-02-28T12:25:39.855Z,6.69
2023-02-28T12:28:19.726Z,6.74
2023-02-28T12:31:10.976Z,6.72
2023-02-28T12:33:44.926Z,6.66
2023-02-28T12:36:19.840Z,6.88
2023-02-28T12:39:08.696Z,6.75
2023-02-28T12:42:06.511Z,6.85
2023-02-28T12:44:48.273Z,6.97
2023-02-28T12:47:17.784Z,5.41
2023-02-28T12:50:07.714Z,6.99
2023-02-28T12:52:46.094Z,6.85
2023-02-28T12:55:56.076Z,6.98
2023-02-28T12:59:01.734Z,7.00
2023-02-28T13:02:01.593Z,7.00
2023-02-28T13:05:06.437Z,7.09
2023-02-28T13:08:19.347Z,6.85
2023-02-28T13:10:55.868Z,7.10
2023-02-28T13:13:45.179Z,7.08
2023-02-28T13:16:20.392Z,7.05
2023-02-28T13:19:11.169Z,7.10
2023-02-28T13:21:50.909Z,7.04
2023-02-28T13:24:56.474Z,7.25
2023-02-28T13:27:48.693Z,7.24
2023-02-28T13:30:56.955Z,7.34
2023-02-28T13:34:10.138Z,7.41
2023-02-28T13:36:45.466Z,7.45
2023-02-28T13:39:37.982Z,7.41
2023-02-28T13:42:28.603Z,7.41
2023-02-28T13:45:16.195Z,7.38
2023-02-28T13:48:04.168Z,7.31
2023-02-28T13:50:48.400Z,7.30
2023-02-28T13:53:26.560Z,6.85
2023-02-28T13:56:53.282Z,7.28
2023-02-28T14:00:23.518Z,7.18
2023-02-28T14:03:17.259Z,6.69
2023-02-28T14:06:14.664Z,7.08
2023-02-28T14:09:12.330Z,6.94
2023-02-28T14:11:46.817Z,7.04
2023-02-28T14:14:41.963Z,7.03
2023-02-28T14:17:35.661Z,6.95
2023-02-28T14:20:27.829Z,6.51
2023-02-28T14:23:04.984Z,7.09
2023-02-28T14:26:11.181Z,7.06
2023-02-28T14:28:56.491Z,7.13
2023-02-28T14:32:05.208Z,7.25
2023-02-28T14:34:52.778Z,7.17
2023-02-28T14:37:33.308Z,7.25
2023-02-28T14:40:10.673Z,7.00
2023-02-28T14:42:52.940Z,7.25
2023-02-28T14:45:21.525Z,7.21
2023-02-28T14:47:53.424Z,7.30
2023-02-28T14:50:24.462Z,7.25
2023-02-28T14:52:57.822Z,7.22
2023-02-28T14:55:33.098Z,7.21
2023-02-28T14:58:32.330Z,7.09
2023-02-28T15:01:11.575Z,7.20
2023-02-28T15:07:40.634Z,7.20
2023-02-28T15:10:21.374Z,7.17
2023-02-28T15:13:13.726Z,7.00
2023-02-28T15:16:04.468Z,7.21
2023-02-28T15:18:57.770Z,7.17
2023-02-28T15:21:27.257Z,7.18
2023-02-28T15:24:24.833Z,7.28
2023-02-28T15:27:11.308Z,6.98
2023-02-28T15:29:50.407Z,7.28
2023-02-28T15:32:41.144Z,7.28
2023-02-28T15:35:31.433Z,7.19
2023-02-28T15:38:03.109Z,7.19
2023-02-28T15:40:38.817Z,7.32
2023-02-28T15:43:32.028Z,7.28
2023-02-28T15:46:16.455Z,7.27
2023-02-28T15:49:04.354Z,7.25
2023-02-28T15:51:38.769Z,6.82
2023-02-28T15:54:16.111Z,7.18
2023-02-28T15:56:54.223Z,7.24
2023-02-28T15:59:35.703Z,7.20
2023-02-28T16:02:18.753Z,7.29
2023-02-28T16:05:07.893Z,7.29
2023-02-28T16:07:40.476Z,7.16
2023-02-28T16:10:09.077Z,7.03
2023-02-28T16:12:38.036Z,7.17
2023-02-28T16:15:35.753Z,7.17
2023-02-28T16:18:02.955Z,6.05
2023-02-28T16:20:33.441Z,7.20
2023-02-28T16:23:04.508Z,7.22
2023-02-28T16:25:44.239Z,7.07
2023-02-28T16:28:22.053Z,7.09
2023-02-28T16:30:51.701Z,7.25
2023-02-28T16:33:18.516Z,7.05
2023-02-28T16:35:45.389Z,7.10
2023-02-28T16:41:00.471Z,7.08
2023-02-28T16:43:33.088Z,6.95
2023-02-28T16:46:11.533Z,6.95
2023-02-28T16:48:40.554Z,7.12
2023-02-28T16:51:29.283Z,7.06
2023-02-28T16:53:56.771Z,7.03
2023-02-28T16:56:31.524Z,7.13
2023-02-28T16:59:03.784Z,7.14
2023-02-28T17:01:36.975Z,6.57
2023-02-28T17:04:03.777Z,7.00
2023-02-28T17:06:43.323Z,7.14
2023-02-28T17:09:17.670Z,7.20
2023-02-28T17:11:44.629Z,6.80
2023-02-28T17:16:54.928Z,7.23
2023-02-28T17:19:28.405Z,7.27
2023-02-28T17:21:55.656Z,7.16
2023-02-28T17:24:30.955Z,7.25
2023-02-28T17:27:02.487Z,6.99
2023-02-28T17:29:31.713Z,6.84
2023-02-28T17:32:00.756Z,6.98
2023-02-28T17:34:37.125Z,6.70
2023-02-28T17:37:06.926Z,7.13
2023-02-28T17:39:33.699Z,7.19
2023-02-28T17:42:00.313Z,6.94
2023-02-28T17:44:29.100Z,7.10
2023-02-28T17:47:01.179Z,7.10
2023-02-28T17:49:31.296Z,7.13
2023-02-28T17:51:58.802Z,6.99
2023-02-28T17:54:30.540Z,6.97
2023-02-28T17:57:00.051Z,6.86
2023-02-28T17:59:34.386Z,7.09
2023-02-28T18:02:04.673Z,7.13
2023-02-28T18:04:31.428Z,7.07
2023-02-28T18:07:09.536Z,7.04
2023-02-28T18:09:36.219Z,7.09
2023-02-28T18:12:03.327Z,7.04
2023-02-28T18:14:30.162Z,6.69
2023-02-28T18:17:02.749Z,6.97
2023-02-28T18:19:29.477Z,6.98
2023-02-28T18:21:58.920Z,6.92
2023-02-28T18:24:29.669Z,7.07
2023-02-28T18:26:59.122Z,7.09
2023-02-28T18:29:27.782Z,6.91
2023-02-28T18:31:56.123Z,6.98
2023-02-28T18:34:24.748Z,6.81
2023-02-28T18:36:57.964Z,6.95
2023-02-28T18:39:37.976Z,6.91
2023-02-28T18:42:21.309Z,6.92
2023-02-28T18:44:50.682Z,6.75
2023-02-28T18:47:23.182Z,6.85
2023-02-28T18:49:50.037Z,6.67
2023-02-28T18:52:18.293Z,6.85
2023-02-28T18:54:45.001Z,6.32
2023-02-28T18:57:13.940Z,6.82
2023-02-28T18:59:48.200Z,6.88
2023-02-28T19:02:20.997Z,6.69
2023-02-28T19:04:48.316Z,6.90
2023-02-28T19:07:14.976Z,6.80
2023-02-28T19:09:52.170Z,6.90
2023-02-28T19:12:23.485Z,6.56
2023-02-28T19:14:53.316Z,6.88
2023-02-28T19:17:22.657Z,6.83
2023-02-28T19:19:55.630Z,6.75
2023-02-28T19:22:31.154Z,6.66
2023-02-28T19:25:07.488Z,6.90
2023-02-28T19:27:39.346Z,6.80
2023-02-28T19:30:17.342Z,6.76
2023-02-28T19:32:48.319Z,6.84
2023-02-28T19:35:20.440Z,6.51
2023-02-28T19:37:53.029Z,6.62
2023-02-28T19:45:55.872Z,6.16
2023-02-28T19:48:32.043Z,6.78
2023-02-28T19:51:11.033Z,6.44
2023-02-28T19:53:46.612Z,6.08
2023-02-28T19:56:18.003Z,5.33
2023-02-28T19:58:46.967Z,6.72
2023-02-28T20:01:25.122Z,6.62
2023-02-28T20:04:02.913Z,6.68
2023-02-28T20:06:41.856Z,6.09
2023-02-28T20:09:13.485Z,6.81
2023-02-28T20:11:40.517Z,6.66
2023-02-28T20:14:08.557Z,6.82
2023-02-28T20:16:35.441Z,6.69
2023-02-28T20:19:13.294Z,5.77
2023-02-28T20:21:55.050Z,6.74
2023-02-28T20:24:33.928Z,6.61
2023-02-28T20:27:00.824Z,6.71
2023-02-28T20:29:28.071Z,6.67
2023-02-28T20:32:07.748Z,6.45
2023-02-28T20:34:44.119Z,6.68
2023-02-28T20:37:14.335Z,6.69
2023-02-28T20:39:53.648Z,6.63
2023-02-28T20:42:30.244Z,6.62
2023-02-28T20:45:10.540Z,6.63
2023-02-28T20:47:56.801Z,6.56
2023-02-28T20:50:30.677Z,6.46
2023-02-28T20:52:57.659Z,6.37
2023-02-28T20:55:24.710Z,6.56
2023-02-28T20:57:54.343Z,6.53
2023-02-28T21:00:26.691Z,6.16
2023-02-28T21:03:06.810Z,6.23
2023-02-28T21:05:37.559Z,6.37
2023-02-28T21:08:14.830Z,6.43
2023-02-28T21:11:11.422Z,6.32
2023-02-28T21:14:11.504Z,6.43
2023-02-28T21:19:46.394Z,6.39
2023-02-28T21:22:14.348Z,6.44
2023-02-28T21:24:44.121Z,6.40
2023-02-28T21:27:26.437Z,6.41
2023-02-28T21:29:55.778Z,6.39
2023-02-28T21:32:22.638Z,6.40
2023-02-28T21:34:50.363Z,6.33
2023-02-28T21:37:30.982Z,6.08
2023-02-28T21:40:12.588Z,6.39
2023-02-28T21:42:47.429Z,6.13
2023-02-28T21:45:30.077Z,5.68
2023-02-28T21:47:57.032Z,6.13
2023-02-28T21:50:23.849Z,6.17
2023-02-28T21:52:55.796Z,6.34
2023-02-28T21:58:14.455Z,6.36
2023-02-28T22:00:47.164Z,5.83
2023-02-28T22:03:14.580Z,6.29
2023-02-28T22:05:44.270Z,6.14
2023-02-28T22:08:22.341Z,6.40
2023-02-28T22:10:49.284Z,6.22
2023-02-28T22:13:29.070Z,5.75
2023-02-28T22:16:06.692Z,6.33
2023-02-28T22:18:40.250Z,6.41
2023-02-28T22:21:08.578Z,6.16
2023-02-28T22:23:44.851Z,6.38
2023-02-28T22:26:32.759Z,5.23
2023-02-28T22:29:03.820Z,5.97
2023-02-28T22:31:36.759Z,6.35
2023-02-28T22:34:20.167Z,5.80
2023-02-28T22:37:02.282Z,6.32
2023-02-28T22:39:45.083Z,6.29
2023-02-28T22:42:28.008Z,6.15
2023-02-28T22:45:07.518Z,6.29
2023-02-28T22:47:36.883Z,6.16
2023-02-28T22:50:11.335Z,6.07
2023-02-28T22:52:44.261Z,5.91
2023-02-28T22:55:38.951Z,6.23
2023-02-28T22:58:08.579Z,6.27
2023-02-28T23:00:36.451Z,6.18
2023-02-28T23:03:06.429Z,6.29
2023-02-28T23:05:38.068Z,6.33
2023-02-28T23:10:51.331Z,6.12
2023-02-28T23:13:22.308Z,6.01
2023-02-28T23:15:49.057Z,6.17
2023-02-28T23:18:36.551Z,4.52
2023-02-28T23:21:03.789Z,5.94
2023-02-28T23:23:34.099Z,6.14
2023-02-28T23:26:12.838Z,5.92
2023-02-28T23:28:39.715Z,5.88
2023-02-28T23:31:08.754Z,6.11
2023-02-28T23:33:41.127Z,6.01
2023-02-28T23:36:16.717Z,5.64
2023-02-28T23:38:55.499Z,5.98
2023-02-28T23:41:23.241Z,6.07
2023-02-28T23:43:52.609Z,4.40
2023-02-28T23:46:22.836Z,5.68
2023-02-28T23:48:52.709Z,5.83
2023-02-28T23:51:27.526Z,5.74
2023-02-28T23:53:54.093Z,5.76
2023-02-28T23:56:26.454Z,5.55
2023-02-28T23:58:57.422Z,5.82
